sensor_id;sensor_type;location;lat;lon;timestamp;P1;durP1;ratioP1;P2;durP2;ratioP2
77174;SDS011;66153;53.488;10.244;2023-01-24T00:01:00;18.83;;;8.70;;
77174;SDS011;66153;53.488;10.244;2023-01-24T00:03:25;22.52;;;9.75;;
77174;SDS011;66153;53.488;10.244;2023-01-24T00:05:51;19.40;;;9.27;;
77174;SDS011;66153;53.488;10.244;2023-01-24T00:08:16;23.33;;;9.57;;
77174;SDS011;66153;53.488;10.244;2023-01-24T00:10:47;19.35;;;9.02;;
77174;SDS011;66153;53.488;10.244;2023-01-24T00:13:13;22.67;;;9.33;;
77174;SDS011;66153;53.488;10.244;2023-01-24T00:15:38;22.15;;;9.48;;
77174;SDS011;66153;53.488;10.244;2023-01-24T00:18:03;22.97;;;8.57;;
77174;SDS011;66153;53.488;10.244;2023-01-24T00:20:29;19.97;;;8.70;;
77174;SDS011;66153;53.488;10.244;2023-01-24T00:22:54;23.02;;;9.93;;
77174;SDS011;66153;53.488;10.244;2023-01-24T00:25:19;23.03;;;8.80;;
77174;SDS011;66153;53.488;10.244;2023-01-24T00:27:44;21.87;;;9.73;;
77174;SDS011;66153;53.488;10.244;2023-01-24T00:30:10;25.67;;;9.57;;
77174;SDS011;66153;53.488;10.244;2023-01-24T00:32:35;20.83;;;9.20;;
77174;SDS011;66153;53.488;10.244;2023-01-24T00:35:00;22.50;;;10.23;;
77174;SDS011;66153;53.488;10.244;2023-01-24T00:37:25;27.60;;;10.90;;
77174;SDS011;66153;53.488;10.244;2023-01-24T00:39:51;25.17;;;10.00;;
77174;SDS011;66153;53.488;10.244;2023-01-24T00:42:16;21.17;;;9.20;;
77174;SDS011;66153;53.488;10.244;2023-01-24T00:44:41;19.13;;;9.87;;
77174;SDS011;66153;53.488;10.244;2023-01-24T00:47:06;23.13;;;9.87;;
77174;SDS011;66153;53.488;10.244;2023-01-24T00:49:31;22.40;;;10.13;;
77174;SDS011;66153;53.488;10.244;2023-01-24T00:51:57;20.43;;;9.67;;
77174;SDS011;66153;53.488;10.244;2023-01-24T00:54:22;22.27;;;8.93;;
77174;SDS011;66153;53.488;10.244;2023-01-24T00:56:47;20.23;;;9.17;;
77174;SDS011;66153;53.488;10.244;2023-01-24T00:59:12;21.10;;;9.80;;
77174;SDS011;66153;53.488;10.244;2023-01-24T01:01:38;21.10;;;8.47;;
77174;SDS011;66153;53.488;10.244;2023-01-24T01:04:03;21.00;;;9.27;;
77174;SDS011;66153;53.488;10.244;2023-01-24T01:06:28;19.97;;;9.03;;
77174;SDS011;66153;53.488;10.244;2023-01-24T01:08:53;22.70;;;8.87;;
77174;SDS011;66153;53.488;10.244;2023-01-24T01:11:19;19.50;;;8.68;;
77174;SDS011;66153;53.488;10.244;2023-01-24T01:13:44;22.47;;;8.83;;
77174;SDS011;66153;53.488;10.244;2023-01-24T01:16:13;21.30;;;9.07;;
77174;SDS011;66153;53.488;10.244;2023-01-24T01:18:41;20.45;;;8.98;;
77174;SDS011;66153;53.488;10.244;2023-01-24T01:21:06;22.17;;;9.45;;
77174;SDS011;66153;53.488;10.244;2023-01-24T01:23:32;23.30;;;9.47;;
77174;SDS011;66153;53.488;10.244;2023-01-24T01:26:01;22.20;;;9.30;;
77174;SDS011;66153;53.488;10.244;2023-01-24T01:28:26;23.95;;;9.55;;
77174;SDS011;66153;53.488;10.244;2023-01-24T01:30:52;21.33;;;9.43;;
77174;SDS011;66153;53.488;10.244;2023-01-24T01:33:17;21.40;;;9.50;;
77174;SDS011;66153;53.488;10.244;2023-01-24T01:35:43;23.27;;;9.37;;
77174;SDS011;66153;53.488;10.244;2023-01-24T01:38:08;21.27;;;8.70;;
77174;SDS011;66153;53.488;10.244;2023-01-24T01:40:33;21.13;;;9.07;;
77174;SDS011;66153;53.488;10.244;2023-01-24T01:42:58;21.40;;;9.53;;
77174;SDS011;66153;53.488;10.244;2023-01-24T01:45:43;20.47;;;8.70;;
77174;SDS011;66153;53.488;10.244;2023-01-24T01:53:23;22.52;;;9.20;;
77174;SDS011;66153;53.488;10.244;2023-01-24T01:55:53;20.50;;;9.02;;
77174;SDS011;66153;53.488;10.244;2023-01-24T01:58:19;20.85;;;9.73;;
77174;SDS011;66153;53.488;10.244;2023-01-24T02:00:45;22.60;;;9.23;;
77174;SDS011;66153;53.488;10.244;2023-01-24T02:03:15;24.60;;;10.25;;
77174;SDS011;66153;53.488;10.244;2023-01-24T02:06:00;22.33;;;8.63;;
77174;SDS011;66153;53.488;10.244;2023-01-24T02:08:25;21.27;;;8.73;;
77174;SDS011;66153;53.488;10.244;2023-01-24T02:10:51;21.15;;;8.75;;
77174;SDS011;66153;53.488;10.244;2023-01-24T02:13:36;22.70;;;9.05;;
77174;SDS011;66153;53.488;10.244;2023-01-24T02:16:04;23.17;;;9.35;;
77174;SDS011;66153;53.488;10.244;2023-01-24T02:18:41;22.63;;;8.82;;
77174;SDS011;66153;53.488;10.244;2023-01-24T02:21:14;21.67;;;8.50;;
77174;SDS011;66153;53.488;10.244;2023-01-24T02:26:16;19.05;;;9.10;;
77174;SDS011;66153;53.488;10.244;2023-01-24T02:28:45;20.25;;;9.45;;
77174;SDS011;66153;53.488;10.244;2023-01-24T02:31:11;18.45;;;8.05;;
77174;SDS011;66153;53.488;10.244;2023-01-24T02:33:37;19.67;;;8.67;;
77174;SDS011;66153;53.488;10.244;2023-01-24T02:36:12;19.53;;;8.40;;
77174;SDS011;66153;53.488;10.244;2023-01-24T02:38:39;20.30;;;8.65;;
77174;SDS011;66153;53.488;10.244;2023-01-24T02:41:05;22.13;;;8.00;;
77174;SDS011;66153;53.488;10.244;2023-01-24T02:43:33;21.63;;;9.00;;
77174;SDS011;66153;53.488;10.244;2023-01-24T02:45:59;18.80;;;9.07;;
77174;SDS011;66153;53.488;10.244;2023-01-24T02:48:24;21.90;;;9.13;;
77174;SDS011;66153;53.488;10.244;2023-01-24T02:50:49;21.67;;;8.60;;
77174;SDS011;66153;53.488;10.244;2023-01-24T02:53:33;15.40;;;7.35;;
77174;SDS011;66153;53.488;10.244;2023-01-24T02:56:04;16.33;;;7.30;;
77174;SDS011;66153;53.488;10.244;2023-01-24T02:58:48;17.80;;;7.03;;
77174;SDS011;66153;53.488;10.244;2023-01-24T03:01:14;18.60;;;8.18;;
77174;SDS011;66153;53.488;10.244;2023-01-24T03:03:40;22.73;;;8.02;;
77174;SDS011;66153;53.488;10.244;2023-01-24T03:06:05;16.65;;;8.48;;
77174;SDS011;66153;53.488;10.244;2023-01-24T03:08:32;20.23;;;8.97;;
77174;SDS011;66153;53.488;10.244;2023-01-24T03:10:57;19.58;;;7.93;;
77174;SDS011;66153;53.488;10.244;2023-01-24T03:13:23;20.27;;;8.07;;
77174;SDS011;66153;53.488;10.244;2023-01-24T03:16:07;22.08;;;8.60;;
77174;SDS011;66153;53.488;10.244;2023-01-24T03:18:51;19.48;;;7.95;;
77174;SDS011;66153;53.488;10.244;2023-01-24T03:21:35;19.85;;;7.47;;
77174;SDS011;66153;53.488;10.244;2023-01-24T03:24:19;16.88;;;7.60;;
77174;SDS011;66153;53.488;10.244;2023-01-24T03:27:03;17.90;;;8.02;;
77174;SDS011;66153;53.488;10.244;2023-01-24T03:29:47;8.88;;;4.05;;
77174;SDS011;66153;53.488;10.244;2023-01-24T03:32:31;13.00;;;6.13;;
77174;SDS011;66153;53.488;10.244;2023-01-24T03:35:15;12.95;;;6.18;;
77174;SDS011;66153;53.488;10.244;2023-01-24T03:37:40;15.80;;;6.70;;
77174;SDS011;66153;53.488;10.244;2023-01-24T03:40:23;14.02;;;7.25;;
77174;SDS011;66153;53.488;10.244;2023-01-24T03:42:49;15.83;;;6.53;;
77174;SDS011;66153;53.488;10.244;2023-01-24T03:45:18;15.00;;;7.50;;
77174;SDS011;66153;53.488;10.244;2023-01-24T03:47:49;18.35;;;6.93;;
77174;SDS011;66153;53.488;10.244;2023-01-24T03:50:33;15.45;;;6.93;;
77174;SDS011;66153;53.488;10.244;2023-01-24T03:53:18;16.48;;;7.40;;
77174;SDS011;66153;53.488;10.244;2023-01-24T03:55:43;14.57;;;7.25;;
77174;SDS011;66153;53.488;10.244;2023-01-24T03:58:09;15.88;;;6.57;;
77174;SDS011;66153;53.488;10.244;2023-01-24T04:00:35;15.20;;;6.90;;
77174;SDS011;66153;53.488;10.244;2023-01-24T04:03:01;18.65;;;7.35;;
77174;SDS011;66153;53.488;10.244;2023-01-24T04:05:26;15.68;;;7.20;;
77174;SDS011;66153;53.488;10.244;2023-01-24T04:07:52;17.70;;;7.07;;
77174;SDS011;66153;53.488;10.244;2023-01-24T04:10:18;16.30;;;6.97;;
77174;SDS011;66153;53.488;10.244;2023-01-24T04:12:43;17.40;;;7.17;;
77174;SDS011;66153;53.488;10.244;2023-01-24T04:15:11;12.30;;;6.13;;
77174;SDS011;66153;53.488;10.244;2023-01-24T04:17:38;13.82;;;6.18;;
77174;SDS011;66153;53.488;10.244;2023-01-24T04:20:03;11.57;;;5.60;;
77174;SDS011;66153;53.488;10.244;2023-01-24T04:22:28;10.18;;;4.80;;
77174;SDS011;66153;53.488;10.244;2023-01-24T04:24:54;11.10;;;5.53;;
77174;SDS011;66153;53.488;10.244;2023-01-24T04:27:19;11.10;;;5.78;;
77174;SDS011;66153;53.488;10.244;2023-01-24T04:29:44;10.73;;;5.20;;
77174;SDS011;66153;53.488;10.244;2023-01-24T04:32:10;9.17;;;5.00;;
77174;SDS011;66153;53.488;10.244;2023-01-24T04:34:35;10.90;;;5.03;;
77174;SDS011;66153;53.488;10.244;2023-01-24T04:37:00;11.77;;;5.80;;
77174;SDS011;66153;53.488;10.244;2023-01-24T04:39:25;13.00;;;5.87;;
77174;SDS011;66153;53.488;10.244;2023-01-24T04:41:50;14.33;;;6.23;;
77174;SDS011;66153;53.488;10.244;2023-01-24T04:44:16;15.30;;;7.03;;
77174;SDS011;66153;53.488;10.244;2023-01-24T04:46:41;14.17;;;6.27;;
77174;SDS011;66153;53.488;10.244;2023-01-24T04:49:06;15.30;;;6.37;;
77174;SDS011;66153;53.488;10.244;2023-01-24T04:51:31;14.53;;;6.33;;
77174;SDS011;66153;53.488;10.244;2023-01-24T04:53:56;16.03;;;6.47;;
77174;SDS011;66153;53.488;10.244;2023-01-24T04:56:22;17.83;;;6.53;;
77174;SDS011;66153;53.488;10.244;2023-01-24T04:58:47;13.37;;;6.53;;
77174;SDS011;66153;53.488;10.244;2023-01-24T05:01:12;15.67;;;7.07;;
77174;SDS011;66153;53.488;10.244;2023-01-24T05:03:37;15.87;;;6.93;;
77174;SDS011;66153;53.488;10.244;2023-01-24T05:06:02;14.30;;;6.17;;
77174;SDS011;66153;53.488;10.244;2023-01-24T05:08:28;12.67;;;5.90;;
77174;SDS011;66153;53.488;10.244;2023-01-24T05:10:53;13.90;;;5.60;;
77174;SDS011;66153;53.488;10.244;2023-01-24T05:13:18;16.00;;;7.83;;
77174;SDS011;66153;53.488;10.244;2023-01-24T05:15:47;11.70;;;6.00;;
77174;SDS011;66153;53.488;10.244;2023-01-24T05:18:13;10.52;;;5.18;;
77174;SDS011;66153;53.488;10.244;2023-01-24T05:20:38;9.43;;;4.73;;
77174;SDS011;66153;53.488;10.244;2023-01-24T05:23:03;11.37;;;4.93;;
77174;SDS011;66153;53.488;10.244;2023-01-24T05:25:28;9.43;;;5.03;;
77174;SDS011;66153;53.488;10.244;2023-01-24T05:27:53;9.20;;;4.70;;
77174;SDS011;66153;53.488;10.244;2023-01-24T05:30:19;8.33;;;4.37;;
77174;SDS011;66153;53.488;10.244;2023-01-24T05:32:44;8.40;;;4.20;;
77174;SDS011;66153;53.488;10.244;2023-01-24T05:35:09;8.43;;;3.50;;
77174;SDS011;66153;53.488;10.244;2023-01-24T05:37:37;9.83;;;4.60;;
77174;SDS011;66153;53.488;10.244;2023-01-24T05:40:03;10.25;;;4.85;;
77174;SDS011;66153;53.488;10.244;2023-01-24T05:42:29;9.15;;;5.20;;
77174;SDS011;66153;53.488;10.244;2023-01-24T05:44:54;9.07;;;4.67;;
77174;SDS011;66153;53.488;10.244;2023-01-24T05:47:19;10.10;;;4.80;;
77174;SDS011;66153;53.488;10.244;2023-01-24T05:49:44;9.20;;;4.50;;
77174;SDS011;66153;53.488;10.244;2023-01-24T05:52:09;10.27;;;5.10;;
77174;SDS011;66153;53.488;10.244;2023-01-24T05:54:35;11.45;;;5.65;;
77174;SDS011;66153;53.488;10.244;2023-01-24T05:57:00;10.50;;;5.10;;
77174;SDS011;66153;53.488;10.244;2023-01-24T05:59:25;11.87;;;5.43;;
77174;SDS011;66153;53.488;10.244;2023-01-24T06:01:50;14.00;;;5.87;;
77174;SDS011;66153;53.488;10.244;2023-01-24T06:04:15;13.00;;;6.70;;
77174;SDS011;66153;53.488;10.244;2023-01-24T06:06:41;13.47;;;5.67;;
77174;SDS011;66153;53.488;10.244;2023-01-24T06:09:06;11.30;;;5.53;;
77174;SDS011;66153;53.488;10.244;2023-01-24T06:11:31;9.43;;;5.20;;
77174;SDS011;66153;53.488;10.244;2023-01-24T06:13:58;10.98;;;5.80;;
77174;SDS011;66153;53.488;10.244;2023-01-24T06:16:24;12.07;;;5.20;;
77174;SDS011;66153;53.488;10.244;2023-01-24T06:18:50;11.07;;;5.13;;
77174;SDS011;66153;53.488;10.244;2023-01-24T06:23:50;10.23;;;5.68;;
77174;SDS011;66153;53.488;10.244;2023-01-24T06:26:15;11.15;;;5.00;;
77174;SDS011;66153;53.488;10.244;2023-01-24T06:28:40;9.30;;;4.82;;
77174;SDS011;66153;53.488;10.244;2023-01-24T06:31:09;9.00;;;5.00;;
77174;SDS011;66153;53.488;10.244;2023-01-24T06:38:49;12.77;;;5.18;;
77174;SDS011;66153;53.488;10.244;2023-01-24T06:41:15;10.13;;;5.13;;
77174;SDS011;66153;53.488;10.244;2023-01-24T06:43:41;11.43;;;5.72;;
77174;SDS011;66153;53.488;10.244;2023-01-24T06:46:08;12.00;;;6.13;;
77174;SDS011;66153;53.488;10.244;2023-01-24T06:48:33;14.18;;;6.07;;
77174;SDS011;66153;53.488;10.244;2023-01-24T06:50:58;10.30;;;5.30;;
77174;SDS011;66153;53.488;10.244;2023-01-24T06:53:24;9.95;;;5.60;;
77174;SDS011;66153;53.488;10.244;2023-01-24T06:55:49;11.53;;;4.90;;
77174;SDS011;66153;53.488;10.244;2023-01-24T06:58:14;9.03;;;4.93;;
77174;SDS011;66153;53.488;10.244;2023-01-24T07:00:39;8.60;;;3.97;;
77174;SDS011;66153;53.488;10.244;2023-01-24T07:03:05;5.30;;;3.10;;
77174;SDS011;66153;53.488;10.244;2023-01-24T07:05:34;8.35;;;3.72;;
77174;SDS011;66153;53.488;10.244;2023-01-24T07:07:59;7.43;;;4.60;;
77174;SDS011;66153;53.488;10.244;2023-01-24T07:10:25;7.97;;;4.30;;
77174;SDS011;66153;53.488;10.244;2023-01-24T07:12:50;7.13;;;4.18;;
77174;SDS011;66153;53.488;10.244;2023-01-24T07:15:16;7.47;;;4.20;;
77174;SDS011;66153;53.488;10.244;2023-01-24T07:17:41;8.18;;;4.10;;
77174;SDS011;66153;53.488;10.244;2023-01-24T07:20:07;9.52;;;4.63;;
77174;SDS011;66153;53.488;10.244;2023-01-24T07:22:32;7.60;;;3.95;;
77174;SDS011;66153;53.488;10.244;2023-01-24T07:24:58;9.23;;;4.18;;
77174;SDS011;66153;53.488;10.244;2023-01-24T07:27:23;8.52;;;4.90;;
77174;SDS011;66153;53.488;10.244;2023-01-24T07:29:49;9.63;;;5.03;;
77174;SDS011;66153;53.488;10.244;2023-01-24T07:32:14;9.00;;;4.73;;
77174;SDS011;66153;53.488;10.244;2023-01-24T07:34:39;10.27;;;5.33;;
77174;SDS011;66153;53.488;10.244;2023-01-24T07:37:07;8.95;;;4.20;;
77174;SDS011;66153;53.488;10.244;2023-01-24T07:39:32;6.72;;;3.55;;
77174;SDS011;66153;53.488;10.244;2023-01-24T07:41:58;6.68;;;4.00;;
77174;SDS011;66153;53.488;10.244;2023-01-24T07:44:23;7.33;;;4.00;;
77174;SDS011;66153;53.488;10.244;2023-01-24T07:46:48;8.50;;;3.80;;
77174;SDS011;66153;53.488;10.244;2023-01-24T07:49:14;8.00;;;4.15;;
77174;SDS011;66153;53.488;10.244;2023-01-24T07:51:39;7.95;;;4.30;;
77174;SDS011;66153;53.488;10.244;2023-01-24T07:54:04;8.17;;;4.60;;
77174;SDS011;66153;53.488;10.244;2023-01-24T07:56:30;9.27;;;5.20;;
77174;SDS011;66153;53.488;10.244;2023-01-24T07:58:56;9.20;;;4.80;;
77174;SDS011;66153;53.488;10.244;2023-01-24T08:01:22;8.75;;;4.43;;
77174;SDS011;66153;53.488;10.244;2023-01-24T08:03:47;7.68;;;4.63;;
77174;SDS011;66153;53.488;10.244;2023-01-24T08:06:12;8.57;;;4.90;;
77174;SDS011;66153;53.488;10.244;2023-01-24T08:08:38;9.93;;;5.83;;
77174;SDS011;66153;53.488;10.244;2023-01-24T08:11:03;10.93;;;5.33;;
77174;SDS011;66153;53.488;10.244;2023-01-24T08:13:28;9.55;;;4.60;;
77174;SDS011;66153;53.488;10.244;2023-01-24T08:15:53;6.83;;;3.73;;
77174;SDS011;66153;53.488;10.244;2023-01-24T08:18:19;8.23;;;4.00;;
77174;SDS011;66153;53.488;10.244;2023-01-24T08:20:44;8.50;;;4.03;;
77174;SDS011;66153;53.488;10.244;2023-01-24T08:23:09;9.10;;;4.80;;
77174;SDS011;66153;53.488;10.244;2023-01-24T08:25:34;10.27;;;4.80;;
77174;SDS011;66153;53.488;10.244;2023-01-24T08:28:00;11.13;;;5.47;;
77174;SDS011;66153;53.488;10.244;2023-01-24T08:30:25;10.10;;;5.10;;
77174;SDS011;66153;53.488;10.244;2023-01-24T08:33:00;9.33;;;4.50;;
77174;SDS011;66153;53.488;10.244;2023-01-24T08:35:25;8.68;;;4.82;;
77174;SDS011;66153;53.488;10.244;2023-01-24T08:37:51;11.97;;;5.63;;
77174;SDS011;66153;53.488;10.244;2023-01-24T08:40:16;9.27;;;4.50;;
77174;SDS011;66153;53.488;10.244;2023-01-24T08:42:41;8.52;;;4.72;;
77174;SDS011;66153;53.488;10.244;2023-01-24T08:45:06;9.43;;;4.57;;
77174;SDS011;66153;53.488;10.244;2023-01-24T08:47:32;9.68;;;4.70;;
77174;SDS011;66153;53.488;10.244;2023-01-24T08:49:57;8.70;;;4.40;;
77174;SDS011;66153;53.488;10.244;2023-01-24T08:52:22;10.13;;;5.17;;
77174;SDS011;66153;53.488;10.244;2023-01-24T08:54:47;10.57;;;5.10;;
77174;SDS011;66153;53.488;10.244;2023-01-24T08:57:13;10.93;;;4.83;;
77174;SDS011;66153;53.488;10.244;2023-01-24T08:59:38;10.33;;;5.47;;
77174;SDS011;66153;53.488;10.244;2023-01-24T09:02:03;7.67;;;5.20;;
77174;SDS011;66153;53.488;10.244;2023-01-24T09:04:29;8.48;;;4.80;;
77174;SDS011;66153;53.488;10.244;2023-01-24T09:06:54;8.23;;;4.93;;
77174;SDS011;66153;53.488;10.244;2023-01-24T09:09:19;7.70;;;4.77;;
77174;SDS011;66153;53.488;10.244;2023-01-24T09:11:44;10.45;;;5.28;;
77174;SDS011;66153;53.488;10.244;2023-01-24T09:14:10;9.53;;;5.00;;
77174;SDS011;66153;53.488;10.244;2023-01-24T09:16:35;9.88;;;5.68;;
77174;SDS011;66153;53.488;10.244;2023-01-24T09:19:00;10.73;;;5.73;;
77174;SDS011;66153;53.488;10.244;2023-01-24T09:21:25;11.33;;;5.63;;
77174;SDS011;66153;53.488;10.244;2023-01-24T09:23:52;8.40;;;5.20;;
77174;SDS011;66153;53.488;10.244;2023-01-24T09:26:17;13.02;;;5.65;;
77174;SDS011;66153;53.488;10.244;2023-01-24T09:28:43;9.43;;;5.33;;
77174;SDS011;66153;53.488;10.244;2023-01-24T09:31:08;10.10;;;5.43;;
77174;SDS011;66153;53.488;10.244;2023-01-24T09:33:34;9.77;;;5.68;;
77174;SDS011;66153;53.488;10.244;2023-01-24T09:36:00;8.35;;;5.35;;
77174;SDS011;66153;53.488;10.244;2023-01-24T09:38:27;11.40;;;5.45;;
77174;SDS011;66153;53.488;10.244;2023-01-24T09:48:53;9.75;;;5.00;;
77174;SDS011;66153;53.488;10.244;2023-01-24T09:51:21;8.60;;;5.32;;
77174;SDS011;66153;53.488;10.244;2023-01-24T09:53:53;8.75;;;5.50;;
77174;SDS011;66153;53.488;10.244;2023-01-24T09:56:34;12.52;;;5.75;;
77174;SDS011;66153;53.488;10.244;2023-01-24T10:01:36;7.45;;;5.18;;
77174;SDS011;66153;53.488;10.244;2023-01-24T10:04:03;11.65;;;5.43;;
77174;SDS011;66153;53.488;10.244;2023-01-24T10:06:28;10.60;;;5.47;;
77174;SDS011;66153;53.488;10.244;2023-01-24T10:09:10;10.85;;;5.63;;
77174;SDS011;66153;53.488;10.244;2023-01-24T10:24:24;8.30;;;5.70;;
77174;SDS011;66153;53.488;10.244;2023-01-24T10:26:51;8.13;;;4.45;;
77174;SDS011;66153;53.488;10.244;2023-01-24T10:29:24;10.15;;;5.30;;
77174;SDS011;66153;53.488;10.244;2023-01-24T10:32:03;8.70;;;5.18;;
77174;SDS011;66153;53.488;10.244;2023-01-24T10:34:33;12.25;;;5.82;;
77174;SDS011;66153;53.488;10.244;2023-01-24T10:37:03;9.13;;;5.32;;
77174;SDS011;66153;53.488;10.244;2023-01-24T10:39:30;10.73;;;5.43;;
77174;SDS011;66153;53.488;10.244;2023-01-24T10:41:55;9.40;;;5.33;;
77174;SDS011;66153;53.488;10.244;2023-01-24T10:44:24;11.77;;;5.43;;
77174;SDS011;66153;53.488;10.244;2023-01-24T10:49:36;10.32;;;5.32;;
77174;SDS011;66153;53.488;10.244;2023-01-24T10:52:08;10.77;;;5.78;;
77174;SDS011;66153;53.488;10.244;2023-01-24T10:54:44;9.93;;;5.60;;
77174;SDS011;66153;53.488;10.244;2023-01-24T10:57:17;10.70;;;5.93;;
77174;SDS011;66153;53.488;10.244;2023-01-24T10:59:43;10.88;;;6.28;;
77174;SDS011;66153;53.488;10.244;2023-01-24T11:02:15;11.77;;;6.63;;
77174;SDS011;66153;53.488;10.244;2023-01-24T11:04:43;10.68;;;5.68;;
77174;SDS011;66153;53.488;10.244;2023-01-24T11:07:19;12.47;;;6.00;;
77174;SDS011;66153;53.488;10.244;2023-01-24T11:09:45;9.95;;;5.43;;
77174;SDS011;66153;53.488;10.244;2023-01-24T11:12:12;9.70;;;5.70;;
77174;SDS011;66153;53.488;10.244;2023-01-24T11:14:38;9.50;;;5.82;;
77174;SDS011;66153;53.488;10.244;2023-01-24T11:17:04;10.57;;;5.88;;
77174;SDS011;66153;53.488;10.244;2023-01-24T11:19:43;9.75;;;5.72;;
77174;SDS011;66153;53.488;10.244;2023-01-24T11:22:19;11.40;;;5.67;;
77174;SDS011;66153;53.488;10.244;2023-01-24T11:24:45;8.20;;;5.22;;
77174;SDS011;66153;53.488;10.244;2023-01-24T11:27:14;11.50;;;6.07;;
77174;SDS011;66153;53.488;10.244;2023-01-24T11:29:41;11.75;;;5.97;;
77174;SDS011;66153;53.488;10.244;2023-01-24T11:34:56;10.55;;;5.40;;
77174;SDS011;66153;53.488;10.244;2023-01-24T11:42:35;13.13;;;6.15;;
77174;SDS011;66153;53.488;10.244;2023-01-24T11:47:49;10.55;;;6.13;;
77174;SDS011;66153;53.488;10.244;2023-01-24T11:52:47;12.20;;;6.10;;
77174;SDS011;66153;53.488;10.244;2023-01-24T11:57:56;10.27;;;6.25;;
77174;SDS011;66153;53.488;10.244;2023-01-24T12:00:27;12.65;;;6.15;;
77174;SDS011;66153;53.488;10.244;2023-01-24T12:03:08;12.05;;;6.05;;
77174;SDS011;66153;53.488;10.244;2023-01-24T12:05:44;10.50;;;5.63;;
77174;SDS011;66153;53.488;10.244;2023-01-24T12:08:21;10.32;;;5.57;;
77174;SDS011;66153;53.488;10.244;2023-01-24T12:18:37;12.45;;;6.25;;
77174;SDS011;66153;53.488;10.244;2023-01-24T12:21:11;11.20;;;6.20;;
77174;SDS011;66153;53.488;10.244;2023-01-24T12:26:56;11.32;;;5.85;;
77174;SDS011;66153;53.488;10.244;2023-01-24T12:29:31;10.27;;;5.43;;
77174;SDS011;66153;53.488;10.244;2023-01-24T12:32:01;8.90;;;5.70;;
77174;SDS011;66153;53.488;10.244;2023-01-24T12:34:32;11.68;;;5.93;;
77174;SDS011;66153;53.488;10.244;2023-01-24T12:37:05;10.85;;;6.03;;
77174;SDS011;66153;53.488;10.244;2023-01-24T12:39:37;11.02;;;5.78;;
77174;SDS011;66153;53.488;10.244;2023-01-24T12:42:06;10.63;;;6.15;;
77174;SDS011;66153;53.488;10.244;2023-01-24T12:44:42;12.65;;;6.90;;
77174;SDS011;66153;53.488;10.244;2023-01-24T12:50:01;12.63;;;6.07;;
77174;SDS011;66153;53.488;10.244;2023-01-24T12:52:30;10.50;;;6.18;;
77174;SDS011;66153;53.488;10.244;2023-01-24T12:55:08;10.95;;;6.10;;
77174;SDS011;66153;53.488;10.244;2023-01-24T12:57:42;12.23;;;6.13;;
77174;SDS011;66153;53.488;10.244;2023-01-24T13:00:14;11.38;;;5.90;;
77174;SDS011;66153;53.488;10.244;2023-01-24T13:05:22;10.35;;;6.40;;
77174;SDS011;66153;53.488;10.244;2023-01-24T13:12:42;12.40;;;7.13;;
77174;SDS011;66153;53.488;10.244;2023-01-24T13:18:42;12.32;;;6.85;;
77174;SDS011;66153;53.488;10.244;2023-01-24T13:20:37;10.95;;;6.07;;
77174;SDS011;66153;53.488;10.244;2023-01-24T13:23:22;10.63;;;6.47;;
77174;SDS011;66153;53.488;10.244;2023-01-24T13:28:30;12.30;;;6.43;;
77174;SDS011;66153;53.488;10.244;2023-01-24T13:33:48;11.88;;;6.30;;
77174;SDS011;66153;53.488;10.244;2023-01-24T13:36:18;10.77;;;6.03;;
77174;SDS011;66153;53.488;10.244;2023-01-24T13:38:44;13.27;;;7.13;;
77174;SDS011;66153;53.488;10.244;2023-01-24T13:41:43;13.13;;;6.55;;
77174;SDS011;66153;53.488;10.244;2023-01-24T13:51:43;11.95;;;6.45;;
77174;SDS011;66153;53.488;10.244;2023-01-24T13:59:37;13.80;;;6.93;;
77174;SDS011;66153;53.488;10.244;2023-01-24T14:02:03;12.20;;;7.38;;
77174;SDS011;66153;53.488;10.244;2023-01-24T14:04:43;13.80;;;6.67;;
77174;SDS011;66153;53.488;10.244;2023-01-24T14:07:19;12.75;;;6.90;;
77174;SDS011;66153;53.488;10.244;2023-01-24T14:09:53;14.20;;;7.82;;
77174;SDS011;66153;53.488;10.244;2023-01-24T14:12:21;15.25;;;7.18;;
77174;SDS011;66153;53.488;10.244;2023-01-24T14:20:04;16.35;;;7.53;;
77174;SDS011;66153;53.488;10.244;2023-01-24T14:22:37;13.50;;;7.75;;
77174;SDS011;66153;53.488;10.244;2023-01-24T14:25:12;13.27;;;7.32;;
77174;SDS011;66153;53.488;10.244;2023-01-24T14:27:46;13.77;;;7.28;;
77174;SDS011;66153;53.488;10.244;2023-01-24T14:38:16;16.45;;;8.10;;
77174;SDS011;66153;53.488;10.244;2023-01-24T14:40:41;15.95;;;7.95;;
77174;SDS011;66153;53.488;10.244;2023-01-24T14:43:08;12.77;;;7.32;;
77174;SDS011;66153;53.488;10.244;2023-01-24T14:45:34;16.15;;;8.57;;
77174;SDS011;66153;53.488;10.244;2023-01-24T14:48:00;17.13;;;7.90;;
77174;SDS011;66153;53.488;10.244;2023-01-24T14:50:30;13.63;;;7.70;;
77174;SDS011;66153;53.488;10.244;2023-01-24T14:52:59;15.45;;;7.38;;
77174;SDS011;66153;53.488;10.244;2023-01-24T14:55:32;14.80;;;7.82;;
77174;SDS011;66153;53.488;10.244;2023-01-24T14:58:12;15.57;;;8.70;;
77174;SDS011;66153;53.488;10.244;2023-01-24T15:03:02;15.65;;;8.65;;
77174;SDS011;66153;53.488;10.244;2023-01-24T15:07:55;17.23;;;8.52;;
77174;SDS011;66153;53.488;10.244;2023-01-24T15:10:24;16.20;;;8.10;;
77174;SDS011;66153;53.488;10.244;2023-01-24T15:12:51;17.80;;;9.13;;
77174;SDS011;66153;53.488;10.244;2023-01-24T15:15:16;16.60;;;7.88;;
77174;SDS011;66153;53.488;10.244;2023-01-24T15:17:44;17.27;;;8.57;;
77174;SDS011;66153;53.488;10.244;2023-01-24T15:20:10;16.05;;;8.23;;
77174;SDS011;66153;53.488;10.244;2023-01-24T15:22:39;17.38;;;9.20;;
77174;SDS011;66153;53.488;10.244;2023-01-24T15:25:15;17.67;;;9.10;;
77174;SDS011;66153;53.488;10.244;2023-01-24T15:27:42;16.52;;;8.00;;
77174;SDS011;66153;53.488;10.244;2023-01-24T15:37:38;20.92;;;9.18;;
77174;SDS011;66153;53.488;10.244;2023-01-24T15:40:04;19.77;;;9.15;;
77174;SDS011;66153;53.488;10.244;2023-01-24T15:42:29;22.40;;;10.02;;
77174;SDS011;66153;53.488;10.244;2023-01-24T15:45:16;20.90;;;9.07;;
77174;SDS011;66153;53.488;10.244;2023-01-24T15:47:42;39.95;;;17.63;;
77174;SDS011;66153;53.488;10.244;2023-01-24T15:50:17;20.67;;;9.50;;
77174;SDS011;66153;53.488;10.244;2023-01-24T15:55:44;18.75;;;8.90;;
77174;SDS011;66153;53.488;10.244;2023-01-24T15:58:10;20.37;;;9.50;;
77174;SDS011;66153;53.488;10.244;2023-01-24T16:00:35;22.33;;;9.63;;
77174;SDS011;66153;53.488;10.244;2023-01-24T16:03:01;17.20;;;6.53;;
77174;SDS011;66153;53.488;10.244;2023-01-24T16:05:26;20.25;;;8.77;;
77174;SDS011;66153;53.488;10.244;2023-01-24T16:07:54;33.25;;;15.18;;
77174;SDS011;66153;53.488;10.244;2023-01-24T16:10:19;24.77;;;9.90;;
77174;SDS011;66153;53.488;10.244;2023-01-24T16:12:44;19.17;;;8.97;;
77174;SDS011;66153;53.488;10.244;2023-01-24T16:15:14;19.45;;;8.68;;
77174;SDS011;66153;53.488;10.244;2023-01-24T16:17:40;19.20;;;9.68;;
77174;SDS011;66153;53.488;10.244;2023-01-24T16:20:11;45.60;;;21.33;;
77174;SDS011;66153;53.488;10.244;2023-01-24T16:22:40;24.27;;;12.57;;
77174;SDS011;66153;53.488;10.244;2023-01-24T16:25:06;22.60;;;9.47;;
77174;SDS011;66153;53.488;10.244;2023-01-24T16:27:35;25.05;;;12.70;;
77174;SDS011;66153;53.488;10.244;2023-01-24T16:30:00;25.37;;;10.77;;
77174;SDS011;66153;53.488;10.244;2023-01-24T16:32:25;24.87;;;11.43;;
77174;SDS011;66153;53.488;10.244;2023-01-24T16:34:53;20.95;;;9.32;;
77174;SDS011;66153;53.488;10.244;2023-01-24T16:37:18;21.87;;;10.10;;